Airport ID:6TE6
Update Time (UTC):08/08/2020 17:41
Wind Speed (Knots):9
Wind Direction (Magnetic):210
Temperature (°C):36
Dew Point (°C):17
Humidity (%):33
Altimeter (inHg):30.06
Density Altitude (Feet):4700
Visibility (Miles):9
Clouds (Hundreds of feet):CLR
Present Weather:
METAR:METAR 6TE6 081740Z AUTO 21011G22KT 9SM CLR 36/17 A3006 RMK A01

The data displayed is for advisory purposes only and is not to be used for flight planning or operations.